sensor_id;sensor_type;location;lat;lon;timestamp;temperature;humidity
24618;DHT22;12762;51.730;5.356;2022-07-17T00:01:48;16.10;53.60
24618;DHT22;12762;51.730;5.356;2022-07-17T00:04:15;16.10;53.60
24618;DHT22;12762;51.730;5.356;2022-07-17T00:06:42;16.00;53.10
24618;DHT22;12762;51.730;5.356;2022-07-17T00:09:09;16.00;53.10
24618;DHT22;12762;51.730;5.356;2022-07-17T00:11:36;16.00;53.20
24618;DHT22;12762;51.730;5.356;2022-07-17T00:14:03;16.00;53.70
24618;DHT22;12762;51.730;5.356;2022-07-17T00:16:30;16.00;53.90
24618;DHT22;12762;51.730;5.356;2022-07-17T00:18:57;15.90;53.60
24618;DHT22;12762;51.730;5.356;2022-07-17T00:21:24;15.90;53.80
24618;DHT22;12762;51.730;5.356;2022-07-17T00:23:51;15.90;53.60
24618;DHT22;12762;51.730;5.356;2022-07-17T00:26:17;15.80;53.70
24618;DHT22;12762;51.730;5.356;2022-07-17T00:28:44;15.80;53.50
24618;DHT22;12762;51.730;5.356;2022-07-17T00:31:11;15.80;53.20
24618;DHT22;12762;51.730;5.356;2022-07-17T00:33:38;15.70;53.10
24618;DHT22;12762;51.730;5.356;2022-07-17T00:36:05;15.70;53.50
24618;DHT22;12762;51.730;5.356;2022-07-17T00:38:31;15.70;53.40
24618;DHT22;12762;51.730;5.356;2022-07-17T00:40:58;15.70;53.30
24618;DHT22;12762;51.730;5.356;2022-07-17T00:43:26;15.60;53.60
24618;DHT22;12762;51.730;5.356;2022-07-17T00:45:58;15.60;54.20
24618;DHT22;12762;51.730;5.356;2022-07-17T00:48:25;15.50;55.50
24618;DHT22;12762;51.730;5.356;2022-07-17T00:50:53;15.50;54.60
24618;DHT22;12762;51.730;5.356;2022-07-17T00:53:20;15.50;54.60
24618;DHT22;12762;51.730;5.356;2022-07-17T00:55:48;15.50;54.90
24618;DHT22;12762;51.730;5.356;2022-07-17T00:58:22;15.40;54.70
24618;DHT22;12762;51.730;5.356;2022-07-17T01:00:51;15.40;54.70
24618;DHT22;12762;51.730;5.356;2022-07-17T01:03:20;15.30;54.90
24618;DHT22;12762;51.730;5.356;2022-07-17T01:05:47;15.30;54.30
24618;DHT22;12762;51.730;5.356;2022-07-17T01:08:14;15.30;54.20
24618;DHT22;12762;51.730;5.356;2022-07-17T01:10:41;15.20;54.50
24618;DHT22;12762;51.730;5.356;2022-07-17T01:13:08;15.20;55.30
24618;DHT22;12762;51.730;5.356;2022-07-17T01:15:37;15.20;54.90
24618;DHT22;12762;51.730;5.356;2022-07-17T01:18:06;15.20;55.30
24618;DHT22;12762;51.730;5.356;2022-07-17T01:20:35;15.20;55.00
24618;DHT22;12762;51.730;5.356;2022-07-17T01:23:02;15.10;54.80
24618;DHT22;12762;51.730;5.356;2022-07-17T01:25:29;15.10;54.90
24618;DHT22;12762;51.730;5.356;2022-07-17T01:27:56;15.10;55.10
24618;DHT22;12762;51.730;5.356;2022-07-17T01:30:23;15.00;55.30
24618;DHT22;12762;51.730;5.356;2022-07-17T01:32:50;15.00;55.50
24618;DHT22;12762;51.730;5.356;2022-07-17T01:35:18;15.00;55.40
24618;DHT22;12762;51.730;5.356;2022-07-17T01:37:45;15.00;55.80
24618;DHT22;12762;51.730;5.356;2022-07-17T01:40:14;14.90;55.50
24618;DHT22;12762;51.730;5.356;2022-07-17T01:42:46;14.90;55.40
24618;DHT22;12762;51.730;5.356;2022-07-17T01:45:15;14.90;55.40
24618;DHT22;12762;51.730;5.356;2022-07-17T01:47:43;14.80;55.70
24618;DHT22;12762;51.730;5.356;2022-07-17T01:50:10;14.80;55.80
24618;DHT22;12762;51.730;5.356;2022-07-17T01:52:39;14.80;56.30
24618;DHT22;12762;51.730;5.356;2022-07-17T01:55:08;14.80;56.80
24618;DHT22;12762;51.730;5.356;2022-07-17T01:57:35;14.80;56.80
24618;DHT22;12762;51.730;5.356;2022-07-17T02:00:07;14.80;57.00
24618;DHT22;12762;51.730;5.356;2022-07-17T02:02:35;14.80;57.40
24618;DHT22;12762;51.730;5.356;2022-07-17T02:05:05;14.80;57.40
24618;DHT22;12762;51.730;5.356;2022-07-17T02:07:32;14.70;57.30
24618;DHT22;12762;51.730;5.356;2022-07-17T02:09:59;14.70;57.00
24618;DHT22;12762;51.730;5.356;2022-07-17T02:12:26;14.70;57.00
24618;DHT22;12762;51.730;5.356;2022-07-17T02:14:53;14.70;56.80
24618;DHT22;12762;51.730;5.356;2022-07-17T02:17:20;14.70;56.80
24618;DHT22;12762;51.730;5.356;2022-07-17T02:19:46;14.70;56.80
24618;DHT22;12762;51.730;5.356;2022-07-17T02:22:13;14.70;57.10
24618;DHT22;12762;51.730;5.356;2022-07-17T02:24:40;14.60;57.20
24618;DHT22;12762;51.730;5.356;2022-07-17T02:27:07;14.60;57.30
24618;DHT22;12762;51.730;5.356;2022-07-17T02:29:33;14.60;57.60
24618;DHT22;12762;51.730;5.356;2022-07-17T02:32:00;14.60;57.60
24618;DHT22;12762;51.730;5.356;2022-07-17T02:34:27;14.60;57.80
24618;DHT22;12762;51.730;5.356;2022-07-17T02:36:54;14.50;57.80
24618;DHT22;12762;51.730;5.356;2022-07-17T02:39:20;14.50;57.90
24618;DHT22;12762;51.730;5.356;2022-07-17T02:41:47;14.50;58.20
24618;DHT22;12762;51.730;5.356;2022-07-17T02:44:14;14.50;58.50
24618;DHT22;12762;51.730;5.356;2022-07-17T02:46:40;14.40;58.30
24618;DHT22;12762;51.730;5.356;2022-07-17T02:49:07;14.40;58.20
24618;DHT22;12762;51.730;5.356;2022-07-17T02:51:34;14.40;58.40
24618;DHT22;12762;51.730;5.356;2022-07-17T02:54:01;14.30;58.10
24618;DHT22;12762;51.730;5.356;2022-07-17T02:56:28;14.30;58.50
24618;DHT22;12762;51.730;5.356;2022-07-17T02:58:55;14.30;58.50
24618;DHT22;12762;51.730;5.356;2022-07-17T03:01:21;14.20;58.50
24618;DHT22;12762;51.730;5.356;2022-07-17T03:03:48;14.20;58.40
24618;DHT22;12762;51.730;5.356;2022-07-17T03:06:15;14.20;58.10
24618;DHT22;12762;51.730;5.356;2022-07-17T03:08:42;14.10;57.90
24618;DHT22;12762;51.730;5.356;2022-07-17T03:11:09;14.10;57.90
24618;DHT22;12762;51.730;5.356;2022-07-17T03:13:36;14.10;57.60
24618;DHT22;12762;51.730;5.356;2022-07-17T03:16:03;14.10;58.00
24618;DHT22;12762;51.730;5.356;2022-07-17T03:18:31;14.10;58.40
24618;DHT22;12762;51.730;5.356;2022-07-17T03:20:58;14.10;58.60
24618;DHT22;12762;51.730;5.356;2022-07-17T03:23:25;14.10;58.50
24618;DHT22;12762;51.730;5.356;2022-07-17T03:25:51;14.10;58.20
24618;DHT22;12762;51.730;5.356;2022-07-17T03:28:19;14.10;58.40
24618;DHT22;12762;51.730;5.356;2022-07-17T03:30:45;14.10;58.80
24618;DHT22;12762;51.730;5.356;2022-07-17T03:33:12;14.10;59.00
24618;DHT22;12762;51.730;5.356;2022-07-17T03:35:39;14.10;59.20
24618;DHT22;12762;51.730;5.356;2022-07-17T03:38:06;14.00;59.00
24618;DHT22;12762;51.730;5.356;2022-07-17T03:40:33;14.00;59.80
24618;DHT22;12762;51.730;5.356;2022-07-17T03:43:00;14.00;59.20
24618;DHT22;12762;51.730;5.356;2022-07-17T03:45:26;14.00;59.20
24618;DHT22;12762;51.730;5.356;2022-07-17T03:47:53;14.00;58.80
24618;DHT22;12762;51.730;5.356;2022-07-17T03:50:21;14.00;59.10
24618;DHT22;12762;51.730;5.356;2022-07-17T03:52:47;13.90;59.30
24618;DHT22;12762;51.730;5.356;2022-07-17T03:55:14;13.90;59.40
24618;DHT22;12762;51.730;5.356;2022-07-17T03:57:41;13.90;59.30
24618;DHT22;12762;51.730;5.356;2022-07-17T04:00:08;13.90;59.00
24618;DHT22;12762;51.730;5.356;2022-07-17T04:02:38;13.90;59.50
24618;DHT22;12762;51.730;5.356;2022-07-17T04:05:05;13.80;58.90
24618;DHT22;12762;51.730;5.356;2022-07-17T04:07:39;13.80;59.00
24618;DHT22;12762;51.730;5.356;2022-07-17T04:10:08;13.80;59.00
24618;DHT22;12762;51.730;5.356;2022-07-17T04:12:36;13.80;58.60
24618;DHT22;12762;51.730;5.356;2022-07-17T04:15:03;13.80;58.80
24618;DHT22;12762;51.730;5.356;2022-07-17T04:17:31;13.80;58.90
24618;DHT22;12762;51.730;5.356;2022-07-17T04:19:57;13.90;58.90
24618;DHT22;12762;51.730;5.356;2022-07-17T04:22:24;13.90;59.20
24618;DHT22;12762;51.730;5.356;2022-07-17T04:24:51;13.90;59.50
24618;DHT22;12762;51.730;5.356;2022-07-17T04:27:18;13.90;59.50
24618;DHT22;12762;51.730;5.356;2022-07-17T04:29:45;13.90;59.20
24618;DHT22;12762;51.730;5.356;2022-07-17T04:32:12;13.90;59.50
24618;DHT22;12762;51.730;5.356;2022-07-17T04:34:39;14.00;59.50
24618;DHT22;12762;51.730;5.356;2022-07-17T04:37:06;14.00;59.30
24618;DHT22;12762;51.730;5.356;2022-07-17T04:39:33;14.00;59.50
24618;DHT22;12762;51.730;5.356;2022-07-17T04:41:59;14.00;59.50
24618;DHT22;12762;51.730;5.356;2022-07-17T04:44:26;14.00;59.50
24618;DHT22;12762;51.730;5.356;2022-07-17T04:46:53;14.10;59.80
24618;DHT22;12762;51.730;5.356;2022-07-17T04:49:22;14.10;60.00
24618;DHT22;12762;51.730;5.356;2022-07-17T04:51:48;14.10;60.10
24618;DHT22;12762;51.730;5.356;2022-07-17T04:54:15;14.10;60.20
24618;DHT22;12762;51.730;5.356;2022-07-17T04:56:42;14.10;60.20
24618;DHT22;12762;51.730;5.356;2022-07-17T04:59:09;14.20;60.20
24618;DHT22;12762;51.730;5.356;2022-07-17T05:01:35;14.20;60.40
24618;DHT22;12762;51.730;5.356;2022-07-17T05:04:02;14.20;60.50
24618;DHT22;12762;51.730;5.356;2022-07-17T05:06:30;14.20;60.50
24618;DHT22;12762;51.730;5.356;2022-07-17T05:08:58;14.30;60.90
24618;DHT22;12762;51.730;5.356;2022-07-17T05:11:24;14.30;60.90
24618;DHT22;12762;51.730;5.356;2022-07-17T05:13:51;14.30;61.20
24618;DHT22;12762;51.730;5.356;2022-07-17T05:16:19;14.40;61.20
24618;DHT22;12762;51.730;5.356;2022-07-17T05:18:46;14.40;61.20
24618;DHT22;12762;51.730;5.356;2022-07-17T05:21:12;14.40;61.20
24618;DHT22;12762;51.730;5.356;2022-07-17T05:23:41;14.50;61.30
24618;DHT22;12762;51.730;5.356;2022-07-17T05:26:07;14.50;61.40
24618;DHT22;12762;51.730;5.356;2022-07-17T05:28:34;14.50;61.60
24618;DHT22;12762;51.730;5.356;2022-07-17T05:31:04;14.60;61.80
24618;DHT22;12762;51.730;5.356;2022-07-17T05:33:31;14.60;62.10
24618;DHT22;12762;51.730;5.356;2022-07-17T05:35:58;14.60;62.10
24618;DHT22;12762;51.730;5.356;2022-07-17T05:38:25;14.70;62.10
24618;DHT22;12762;51.730;5.356;2022-07-17T05:40:52;14.70;62.10
24618;DHT22;12762;51.730;5.356;2022-07-17T05:43:19;14.70;61.90
24618;DHT22;12762;51.730;5.356;2022-07-17T05:45:46;14.80;62.00
24618;DHT22;12762;51.730;5.356;2022-07-17T05:48:12;14.80;62.00
24618;DHT22;12762;51.730;5.356;2022-07-17T05:50:39;14.90;62.00
24618;DHT22;12762;51.730;5.356;2022-07-17T05:53:06;14.90;62.00
24618;DHT22;12762;51.730;5.356;2022-07-17T05:55:33;14.90;61.90
24618;DHT22;12762;51.730;5.356;2022-07-17T05:58:00;14.90;62.00
24618;DHT22;12762;51.730;5.356;2022-07-17T06:00:26;15.00;62.40
24618;DHT22;12762;51.730;5.356;2022-07-17T06:02:53;15.00;62.40
24618;DHT22;12762;51.730;5.356;2022-07-17T06:05:20;15.10;62.40
24618;DHT22;12762;51.730;5.356;2022-07-17T06:07:47;15.10;62.60
24618;DHT22;12762;51.730;5.356;2022-07-17T06:10:14;15.20;62.90
24618;DHT22;12762;51.730;5.356;2022-07-17T06:12:40;15.20;63.00
24618;DHT22;12762;51.730;5.356;2022-07-17T06:15:07;15.30;63.20
24618;DHT22;12762;51.730;5.356;2022-07-17T06:17:34;15.30;63.20
24618;DHT22;12762;51.730;5.356;2022-07-17T06:20:08;15.40;63.10
24618;DHT22;12762;51.730;5.356;2022-07-17T06:22:35;15.40;63.00
24618;DHT22;12762;51.730;5.356;2022-07-17T06:25:02;15.50;62.70
24618;DHT22;12762;51.730;5.356;2022-07-17T06:27:29;15.50;62.80
24618;DHT22;12762;51.730;5.356;2022-07-17T06:29:56;15.60;62.80
24618;DHT22;12762;51.730;5.356;2022-07-17T06:32:23;15.60;62.60
24618;DHT22;12762;51.730;5.356;2022-07-17T06:34:49;15.70;62.70
24618;DHT22;12762;51.730;5.356;2022-07-17T06:37:16;15.80;62.90
24618;DHT22;12762;51.730;5.356;2022-07-17T06:39:43;15.90;62.90
24618;DHT22;12762;51.730;5.356;2022-07-17T06:42:10;16.00;62.90
24618;DHT22;12762;51.730;5.356;2022-07-17T06:44:37;16.00;62.70
24618;DHT22;12762;51.730;5.356;2022-07-17T06:47:04;16.10;62.70
24618;DHT22;12762;51.730;5.356;2022-07-17T06:49:31;16.20;62.70
24618;DHT22;12762;51.730;5.356;2022-07-17T06:51:58;16.30;62.70
24618;DHT22;12762;51.730;5.356;2022-07-17T06:54:25;16.40;62.80
24618;DHT22;12762;51.730;5.356;2022-07-17T06:56:53;16.80;64.00
24618;DHT22;12762;51.730;5.356;2022-07-17T06:59:20;17.70;64.20
24618;DHT22;12762;51.730;5.356;2022-07-17T07:01:47;18.90;63.50
24618;DHT22;12762;51.730;5.356;2022-07-17T07:04:14;20.10;61.50
24618;DHT22;12762;51.730;5.356;2022-07-17T07:06:41;21.20;59.50
24618;DHT22;12762;51.730;5.356;2022-07-17T07:09:08;22.20;58.00
24618;DHT22;12762;51.730;5.356;2022-07-17T07:11:41;23.10;56.30
24618;DHT22;12762;51.730;5.356;2022-07-17T07:14:11;23.90;55.00
24618;DHT22;12762;51.730;5.356;2022-07-17T07:16:38;24.70;53.80
24618;DHT22;12762;51.730;5.356;2022-07-17T07:19:05;25.30;52.30
24618;DHT22;12762;51.730;5.356;2022-07-17T07:21:32;25.80;51.40
24618;DHT22;12762;51.730;5.356;2022-07-17T07:23:58;26.40;50.50
24618;DHT22;12762;51.730;5.356;2022-07-17T07:26:25;26.90;49.50
24618;DHT22;12762;51.730;5.356;2022-07-17T07:28:52;27.30;48.60
24618;DHT22;12762;51.730;5.356;2022-07-17T07:31:19;27.60;48.20
24618;DHT22;12762;51.730;5.356;2022-07-17T07:33:46;27.80;47.50
24618;DHT22;12762;51.730;5.356;2022-07-17T07:36:13;27.90;46.60
24618;DHT22;12762;51.730;5.356;2022-07-17T07:38:44;28.00;46.40
24618;DHT22;12762;51.730;5.356;2022-07-17T07:41:14;28.10;46.40
24618;DHT22;12762;51.730;5.356;2022-07-17T07:43:42;28.40;46.00
24618;DHT22;12762;51.730;5.356;2022-07-17T07:46:08;28.60;45.30
24618;DHT22;12762;51.730;5.356;2022-07-17T07:48:35;28.80;44.50
24618;DHT22;12762;51.730;5.356;2022-07-17T07:51:02;29.20;44.50
24618;DHT22;12762;51.730;5.356;2022-07-17T07:53:29;29.40;44.00
24618;DHT22;12762;51.730;5.356;2022-07-17T07:55:56;29.60;43.90
24618;DHT22;12762;51.730;5.356;2022-07-17T07:58:23;29.70;43.50
24618;DHT22;12762;51.730;5.356;2022-07-17T08:00:50;29.80;43.10
24618;DHT22;12762;51.730;5.356;2022-07-17T08:03:17;29.90;42.70
24618;DHT22;12762;51.730;5.356;2022-07-17T08:05:50;29.80;42.60
24618;DHT22;12762;51.730;5.356;2022-07-17T08:08:17;29.80;42.90
24618;DHT22;12762;51.730;5.356;2022-07-17T08:10:44;29.80;42.70
24618;DHT22;12762;51.730;5.356;2022-07-17T08:13:11;29.90;42.60
24618;DHT22;12762;51.730;5.356;2022-07-17T08:15:37;30.00;42.00
24618;DHT22;12762;51.730;5.356;2022-07-17T08:18:04;29.90;41.80
24618;DHT22;12762;51.730;5.356;2022-07-17T08:20:31;29.90;41.90
24618;DHT22;12762;51.730;5.356;2022-07-17T08:22:58;29.90;42.10
24618;DHT22;12762;51.730;5.356;2022-07-17T08:25:32;29.90;42.00
24618;DHT22;12762;51.730;5.356;2022-07-17T08:28:02;29.70;42.20
24618;DHT22;12762;51.730;5.356;2022-07-17T08:30:29;29.70;42.00
24618;DHT22;12762;51.730;5.356;2022-07-17T08:32:58;29.60;41.80
24618;DHT22;12762;51.730;5.356;2022-07-17T08:35:25;29.60;41.70
24618;DHT22;12762;51.730;5.356;2022-07-17T08:37:53;29.60;41.90
24618;DHT22;12762;51.730;5.356;2022-07-17T08:40:23;29.70;41.80
24618;DHT22;12762;51.730;5.356;2022-07-17T08:42:51;29.90;41.10
24618;DHT22;12762;51.730;5.356;2022-07-17T08:45:18;30.00;41.20
24618;DHT22;12762;51.730;5.356;2022-07-17T08:47:45;29.90;40.60
24618;DHT22;12762;51.730;5.356;2022-07-17T08:50:13;29.90;40.50
24618;DHT22;12762;51.730;5.356;2022-07-17T08:52:42;29.80;40.80
24618;DHT22;12762;51.730;5.356;2022-07-17T08:55:13;29.80;40.70
24618;DHT22;12762;51.730;5.356;2022-07-17T08:57:42;29.80;40.60
24618;DHT22;12762;51.730;5.356;2022-07-17T09:00:14;30.00;40.30
24618;DHT22;12762;51.730;5.356;2022-07-17T09:03:13;30.10;40.40
24618;DHT22;12762;51.730;5.356;2022-07-17T09:05:40;30.40;41.10
24618;DHT22;12762;51.730;5.356;2022-07-17T09:08:17;30.60;39.90
24618;DHT22;12762;51.730;5.356;2022-07-17T09:10:47;30.80;39.70
24618;DHT22;12762;51.730;5.356;2022-07-17T09:13:23;31.00;39.40
24618;DHT22;12762;51.730;5.356;2022-07-17T09:16:12;31.10;38.80
24618;DHT22;12762;51.730;5.356;2022-07-17T09:18:52;31.00;39.00
24618;DHT22;12762;51.730;5.356;2022-07-17T09:21:26;30.90;39.10
24618;DHT22;12762;51.730;5.356;2022-07-17T09:24:06;30.80;38.80
24618;DHT22;12762;51.730;5.356;2022-07-17T09:26:34;30.80;39.30
24618;DHT22;12762;51.730;5.356;2022-07-17T09:29:02;30.90;39.00
24618;DHT22;12762;51.730;5.356;2022-07-17T09:31:31;31.00;38.90
24618;DHT22;12762;51.730;5.356;2022-07-17T09:33:58;31.20;38.50
24618;DHT22;12762;51.730;5.356;2022-07-17T09:36:26;31.40;38.30
24618;DHT22;12762;51.730;5.356;2022-07-17T09:38:55;31.60;37.80
24618;DHT22;12762;51.730;5.356;2022-07-17T09:41:24;31.70;37.50
24618;DHT22;12762;51.730;5.356;2022-07-17T09:43:58;31.90;37.30
24618;DHT22;12762;51.730;5.356;2022-07-17T09:46:33;32.00;37.20
24618;DHT22;12762;51.730;5.356;2022-07-17T09:49:06;32.00;36.90
24618;DHT22;12762;51.730;5.356;2022-07-17T09:51:40;32.00;37.10
24618;DHT22;12762;51.730;5.356;2022-07-17T09:54:09;32.10;36.80
24618;DHT22;12762;51.730;5.356;2022-07-17T09:56:38;32.10;36.60
24618;DHT22;12762;51.730;5.356;2022-07-17T09:59:09;32.20;36.40
24618;DHT22;12762;51.730;5.356;2022-07-17T10:01:38;32.30;36.30
24618;DHT22;12762;51.730;5.356;2022-07-17T10:04:05;32.40;35.50
24618;DHT22;12762;51.730;5.356;2022-07-17T10:06:32;32.40;35.10
24618;DHT22;12762;51.730;5.356;2022-07-17T10:09:00;32.50;35.30
24618;DHT22;12762;51.730;5.356;2022-07-17T10:11:30;32.50;35.50
24618;DHT22;12762;51.730;5.356;2022-07-17T10:14:04;32.40;35.40
24618;DHT22;12762;51.730;5.356;2022-07-17T10:16:33;32.30;35.40
24618;DHT22;12762;51.730;5.356;2022-07-17T10:19:02;32.20;35.70
24618;DHT22;12762;51.730;5.356;2022-07-17T10:21:30;32.30;35.80
24618;DHT22;12762;51.730;5.356;2022-07-17T10:26:40;32.50;35.60
24618;DHT22;12762;51.730;5.356;2022-07-17T10:29:09;32.70;35.60
24618;DHT22;12762;51.730;5.356;2022-07-17T10:31:51;33.00;34.90
24618;DHT22;12762;51.730;5.356;2022-07-17T10:34:21;33.10;34.60
24618;DHT22;12762;51.730;5.356;2022-07-17T10:36:48;33.20;34.50
24618;DHT22;12762;51.730;5.356;2022-07-17T10:39:20;33.20;34.20
24618;DHT22;12762;51.730;5.356;2022-07-17T10:41:59;33.30;33.30
24618;DHT22;12762;51.730;5.356;2022-07-17T10:44:28;33.30;33.30
24618;DHT22;12762;51.730;5.356;2022-07-17T10:46:55;33.30;32.70
24618;DHT22;12762;51.730;5.356;2022-07-17T10:49:23;33.30;32.50
24618;DHT22;12762;51.730;5.356;2022-07-17T10:51:51;33.20;32.10
24618;DHT22;12762;51.730;5.356;2022-07-17T10:54:19;33.30;31.90
24618;DHT22;12762;51.730;5.356;2022-07-17T10:56:46;33.30;31.90
24618;DHT22;12762;51.730;5.356;2022-07-17T10:59:14;33.30;32.20
24618;DHT22;12762;51.730;5.356;2022-07-17T11:01:41;33.40;31.70
24618;DHT22;12762;51.730;5.356;2022-07-17T11:04:08;33.30;31.70
24618;DHT22;12762;51.730;5.356;2022-07-17T11:06:37;33.50;31.10
24618;DHT22;12762;51.730;5.356;2022-07-17T11:09:06;33.60;31.30
24618;DHT22;12762;51.730;5.356;2022-07-17T11:14:16;33.70;31.70
24618;DHT22;12762;51.730;5.356;2022-07-17T11:17:01;33.80;32.00
24618;DHT22;12762;51.730;5.356;2022-07-17T11:19:38;33.80;31.80
24618;DHT22;12762;51.730;5.356;2022-07-17T11:22:07;33.60;32.10
24618;DHT22;12762;51.730;5.356;2022-07-17T11:24:45;33.50;32.10
24618;DHT22;12762;51.730;5.356;2022-07-17T11:29:45;33.40;32.00
24618;DHT22;12762;51.730;5.356;2022-07-17T11:32:12;33.20;32.40
24618;DHT22;12762;51.730;5.356;2022-07-17T11:34:39;33.20;32.50
24618;DHT22;12762;51.730;5.356;2022-07-17T11:37:09;33.20;32.10
24618;DHT22;12762;51.730;5.356;2022-07-17T11:39:40;33.20;31.70
24618;DHT22;12762;51.730;5.356;2022-07-17T11:42:09;33.30;31.20
24618;DHT22;12762;51.730;5.356;2022-07-17T11:44:37;33.40;31.50
24618;DHT22;12762;51.730;5.356;2022-07-17T11:47:04;33.50;30.50
24618;DHT22;12762;51.730;5.356;2022-07-17T11:49:35;33.60;30.40
24618;DHT22;12762;51.730;5.356;2022-07-17T11:52:18;33.70;30.20
24618;DHT22;12762;51.730;5.356;2022-07-17T11:54:50;33.70;30.20
24618;DHT22;12762;51.730;5.356;2022-07-17T11:57:18;33.70;30.70
24618;DHT22;12762;51.730;5.356;2022-07-17T11:59:46;33.70;30.70
24618;DHT22;12762;51.730;5.356;2022-07-17T12:02:18;33.80;30.40
24618;DHT22;12762;51.730;5.356;2022-07-17T12:04:55;33.80;30.10
24618;DHT22;12762;51.730;5.356;2022-07-17T12:07:25;33.60;30.50
24618;DHT22;12762;51.730;5.356;2022-07-17T12:09:53;33.50;30.30
24618;DHT22;12762;51.730;5.356;2022-07-17T12:12:23;33.50;30.60
24618;DHT22;12762;51.730;5.356;2022-07-17T12:14:57;33.50;30.60
24618;DHT22;12762;51.730;5.356;2022-07-17T12:17:44;33.70;31.20
24618;DHT22;12762;51.730;5.356;2022-07-17T12:20:11;33.80;30.50
24618;DHT22;12762;51.730;5.356;2022-07-17T12:22:45;34.00;30.10
24618;DHT22;12762;51.730;5.356;2022-07-17T12:25:27;34.10;29.80
24618;DHT22;12762;51.730;5.356;2022-07-17T12:27:54;34.30;29.70
24618;DHT22;12762;51.730;5.356;2022-07-17T12:30:21;34.30;29.60
24618;DHT22;12762;51.730;5.356;2022-07-17T12:32:48;34.30;29.50
24618;DHT22;12762;51.730;5.356;2022-07-17T12:35:15;34.40;29.20
24618;DHT22;12762;51.730;5.356;2022-07-17T12:37:42;34.40;28.90
24618;DHT22;12762;51.730;5.356;2022-07-17T12:40:10;34.30;29.00
24618;DHT22;12762;51.730;5.356;2022-07-17T12:42:42;34.20;28.40
24618;DHT22;12762;51.730;5.356;2022-07-17T12:45:10;34.10;28.80
24618;DHT22;12762;51.730;5.356;2022-07-17T12:47:37;34.00;29.10
24618;DHT22;12762;51.730;5.356;2022-07-17T12:50:05;34.00;28.90
24618;DHT22;12762;51.730;5.356;2022-07-17T12:52:32;34.10;29.30
24618;DHT22;12762;51.730;5.356;2022-07-17T12:54:59;34.20;29.70
24618;DHT22;12762;51.730;5.356;2022-07-17T12:57:26;34.40;29.40
24618;DHT22;12762;51.730;5.356;2022-07-17T12:59:53;34.60;29.40
24618;DHT22;12762;51.730;5.356;2022-07-17T13:02:21;34.70;29.60
24618;DHT22;12762;51.730;5.356;2022-07-17T13:04:48;34.90;29.70
24618;DHT22;12762;51.730;5.356;2022-07-17T13:07:15;34.90;29.00
24618;DHT22;12762;51.730;5.356;2022-07-17T13:09:42;35.00;28.80
24618;DHT22;12762;51.730;5.356;2022-07-17T13:12:09;34.90;28.90
24618;DHT22;12762;51.730;5.356;2022-07-17T13:14:36;34.90;28.70
24618;DHT22;12762;51.730;5.356;2022-07-17T13:17:03;34.90;28.80
24618;DHT22;12762;51.730;5.356;2022-07-17T13:19:30;34.90;29.00
24618;DHT22;12762;51.730;5.356;2022-07-17T13:21:56;34.90;28.70
24618;DHT22;12762;51.730;5.356;2022-07-17T13:24:23;35.00;28.80
24618;DHT22;12762;51.730;5.356;2022-07-17T13:26:50;35.10;29.20
24618;DHT22;12762;51.730;5.356;2022-07-17T13:29:17;35.20;29.00
24618;DHT22;12762;51.730;5.356;2022-07-17T13:31:44;35.30;28.80
24618;DHT22;12762;51.730;5.356;2022-07-17T13:34:12;35.30;28.60
24618;DHT22;12762;51.730;5.356;2022-07-17T13:36:39;35.30;28.40
24618;DHT22;12762;51.730;5.356;2022-07-17T13:39:07;35.40;28.20
24618;DHT22;12762;51.730;5.356;2022-07-17T13:41:34;35.40;28.40
24618;DHT22;12762;51.730;5.356;2022-07-17T13:44:03;35.40;28.30
24618;DHT22;12762;51.730;5.356;2022-07-17T13:46:34;35.30;28.00
24618;DHT22;12762;51.730;5.356;2022-07-17T13:49:02;35.30;28.20
24618;DHT22;12762;51.730;5.356;2022-07-17T13:51:29;35.30;27.80
24618;DHT22;12762;51.730;5.356;2022-07-17T13:53:59;35.10;27.80
24618;DHT22;12762;51.730;5.356;2022-07-17T13:56:26;35.10;27.90
24618;DHT22;12762;51.730;5.356;2022-07-17T13:58:53;35.10;27.90
24618;DHT22;12762;51.730;5.356;2022-07-17T14:01:21;35.00;27.80
24618;DHT22;12762;51.730;5.356;2022-07-17T14:03:49;34.90;27.90
24618;DHT22;12762;51.730;5.356;2022-07-17T14:06:16;34.90;28.00
24618;DHT22;12762;51.730;5.356;2022-07-17T14:08:43;34.90;28.20
24618;DHT22;12762;51.730;5.356;2022-07-17T14:11:11;34.90;27.60
24618;DHT22;12762;51.730;5.356;2022-07-17T14:13:39;34.90;27.60
24618;DHT22;12762;51.730;5.356;2022-07-17T14:16:13;34.90;27.80
24618;DHT22;12762;51.730;5.356;2022-07-17T14:18:40;34.90;27.70
24618;DHT22;12762;51.730;5.356;2022-07-17T14:21:29;34.90;27.60
24618;DHT22;12762;51.730;5.356;2022-07-17T14:23:57;34.70;27.80
24618;DHT22;12762;51.730;5.356;2022-07-17T14:26:24;34.60;27.80
24618;DHT22;12762;51.730;5.356;2022-07-17T14:28:51;34.60;27.60
24618;DHT22;12762;51.730;5.356;2022-07-17T14:31:18;34.50;27.80
24618;DHT22;12762;51.730;5.356;2022-07-17T14:33:46;34.50;27.90
24618;DHT22;12762;51.730;5.356;2022-07-17T14:36:15;34.40;27.90
24618;DHT22;12762;51.730;5.356;2022-07-17T14:38:43;34.40;27.70
24618;DHT22;12762;51.730;5.356;2022-07-17T14:41:09;34.30;27.80
24618;DHT22;12762;51.730;5.356;2022-07-17T14:43:39;34.20;27.90
24618;DHT22;12762;51.730;5.356;2022-07-17T14:46:09;34.20;27.80
24618;DHT22;12762;51.730;5.356;2022-07-17T14:48:36;34.10;27.80
24618;DHT22;12762;51.730;5.356;2022-07-17T14:51:03;34.10;27.80
24618;DHT22;12762;51.730;5.356;2022-07-17T14:53:30;34.10;28.20
24618;DHT22;12762;51.730;5.356;2022-07-17T14:55:57;34.10;27.80
24618;DHT22;12762;51.730;5.356;2022-07-17T14:58:24;34.10;27.90
24618;DHT22;12762;51.730;5.356;2022-07-17T15:00:51;34.10;27.70
24618;DHT22;12762;51.730;5.356;2022-07-17T15:03:18;34.10;27.60
24618;DHT22;12762;51.730;5.356;2022-07-17T15:05:46;34.00;27.40
24618;DHT22;12762;51.730;5.356;2022-07-17T15:08:13;34.00;27.60
24618;DHT22;12762;51.730;5.356;2022-07-17T15:10:39;33.90;27.50
24618;DHT22;12762;51.730;5.356;2022-07-17T15:13:06;33.70;27.40
24618;DHT22;12762;51.730;5.356;2022-07-17T15:15:34;33.60;27.60
24618;DHT22;12762;51.730;5.356;2022-07-17T15:18:00;33.40;27.70
24618;DHT22;12762;51.730;5.356;2022-07-17T15:20:27;33.40;28.00
24618;DHT22;12762;51.730;5.356;2022-07-17T15:22:54;33.30;27.80
24618;DHT22;12762;51.730;5.356;2022-07-17T15:25:21;33.30;27.40
24618;DHT22;12762;51.730;5.356;2022-07-17T15:27:49;33.30;27.40
24618;DHT22;12762;51.730;5.356;2022-07-17T15:30:16;33.30;27.80
24618;DHT22;12762;51.730;5.356;2022-07-17T15:32:44;33.30;27.20
24618;DHT22;12762;51.730;5.356;2022-07-17T15:35:11;33.30;27.60
24618;DHT22;12762;51.730;5.356;2022-07-17T15:37:39;33.30;27.70
24618;DHT22;12762;51.730;5.356;2022-07-17T15:40:06;33.30;27.80
24618;DHT22;12762;51.730;5.356;2022-07-17T15:42:33;33.30;28.00
24618;DHT22;12762;51.730;5.356;2022-07-17T15:45:00;33.30;27.80